Time;durP1;ratioP1;P1;durP2;ratioP2;P2;SDS_P1;SDS_P2;PMS_P1;PMS_P2;Temp;Humidity;BMP_temperature;BMP_pressure;BME280_temperature;BME280_humidity;BME280_pressure;Samples;Min_cycle;Max_cycle;Signal;HPM_P1;HPM_P2
2023/05/04 00:00:11;;;;;;;2.58;2.38;;;;;;;;;;6072643;23;20029;-74
2023/05/04 00:02:38;;;;;;;5.63;2.60;;;;;;;;;;6123086;23;20014;-75
2023/05/04 00:05:04;;;;;;;2.78;2.58;;;;;;;;;;6097411;23;20010;-77
2023/05/04 00:07:30;;;;;;;3.95;2.60;;;;;;;;;;6097595;23;20109;-76
2023/05/04 00:09:57;;;;;;;3.20;2.90;;;;;;;;;;6096877;23;20092;-75
2023/05/04 00:12:24;;;;;;;6.72;3.65;;;;;;;;;;6097684;23;20024;-76
2023/05/04 00:14:50;;;;;;;4.43;3.20;;;;;;;;;;6097701;23;20029;-77
2023/05/04 00:17:16;;;;;;;4.80;3.63;;;;;;;;;;6097495;23;20010;-77
2023/05/04 00:19:43;;;;;;;4.53;3.15;;;;;;;;;;6097781;23;20419;-77
2023/05/04 00:22:09;;;;;;;5.88;3.60;;;;;;;;;;6097783;23;20014;-77
2023/05/04 00:24:35;;;;;;;4.30;3.72;;;;;;;;;;6097440;23;20014;-77
2023/05/04 00:27:01;;;;;;;5.13;3.75;;;;;;;;;;6123102;23;20418;-76
2023/05/04 00:29:28;;;;;;;4.82;3.50;;;;;;;;;;6123542;23;20033;-76
2023/05/04 00:31:55;;;;;;;5.10;3.60;;;;;;;;;;6122952;23;20477;-76
2023/05/04 00:34:21;;;;;;;3.60;3.33;;;;;;;;;;6123532;23;20021;-77
2023/05/04 00:36:47;;;;;;;5.07;3.45;;;;;;;;;;6123589;23;20089;-77
2023/05/04 00:39:13;;;;;;;6.63;4.05;;;;;;;;;;6073356;23;20018;-77
2023/05/04 00:41:39;;;;;;;11.85;3.63;;;;;;;;;;6123762;23;20358;-76
2023/05/04 00:44:05;;;;;;;4.22;3.00;;;;;;;;;;6097016;23;20100;-78
2023/05/04 00:46:31;;;;;;;4.57;3.58;;;;;;;;;;6097528;23;20498;-77
2023/05/04 00:48:58;;;;;;;9.60;4.57;;;;;;;;;;6096723;23;20022;-77
2023/05/04 00:51:25;;;;;;;8.10;4.65;;;;;;;;;;6098605;23;20014;-77
2023/05/04 00:53:53;;;;;;;5.93;4.93;;;;;;;;;;6098097;23;20076;-78
2023/05/04 00:56:20;;;;;;;6.78;5.20;;;;;;;;;;6097751;23;20459;-76
2023/05/04 00:58:46;;;;;;;4.72;4.32;;;;;;;;;;6097334;23;20447;-76
2023/05/04 01:01:12;;;;;;;5.70;4.55;;;;;;;;;;6123198;23;20041;-76
2023/05/04 01:03:38;;;;;;;4.60;4.20;;;;;;;;;;6073001;23;20022;-76
2023/05/04 01:06:11;;;;;;;4.22;3.72;;;;;;;;;;6122757;23;20068;-77
2023/05/04 01:08:41;;;;;;;6.43;4.03;;;;;;;;;;6073898;23;20018;-75
2023/05/04 01:11:12;;;;;;;5.75;3.95;;;;;;;;;;6122856;23;20068;-76
2023/05/04 01:13:38;;;;;;;;;;;;;;;;;;6074187;23;20033;-76
2023/05/04 01:16:05;;;;;;;4.85;3.67;;;;;;;;;;6123632;23;20420;-76
2023/05/04 01:18:31;;;;;;;4.50;4.10;;;;;;;;;;6097855;23;20024;-76
2023/05/04 01:20:57;;;;;;;6.32;4.35;;;;;;;;;;6074357;23;20061;-75
2023/05/04 01:23:23;;;;;;;8.85;4.20;;;;;;;;;;6123649;23;20018;-76
2023/05/04 01:25:57;;;;;;;9.10;4.18;;;;;;;;;;6122691;23;20093;-76
2023/05/04 01:28:27;;;;;;;4.47;3.90;;;;;;;;;;6125217;23;20018;-76
2023/05/04 01:30:54;;;;;;;6.30;4.35;;;;;;;;;;6110900;23;20017;-75
2023/05/04 01:33:21;;;;;;;4.05;3.53;;;;;;;;;;6140334;23;20032;-75
2023/05/04 01:35:47;;;;;;;4.38;3.72;;;;;;;;;;6108247;23;20014;-75
2023/05/04 01:38:13;;;;;;;7.22;5.63;;;;;;;;;;6124634;23;20018;-75
2023/05/04 01:40:39;;;;;;;5.47;3.83;;;;;;;;;;6103163;23;20479;-75
2023/05/04 01:43:05;;;;;;;4.00;3.55;;;;;;;;;;6075902;23;20081;-75
2023/05/04 01:45:32;;;;;;;5.22;4.05;;;;;;;;;;6124783;23;19994;-77
2023/05/04 01:47:58;;;;;;;4.53;4.15;;;;;;;;;;6073178;23;20127;-75
2023/05/04 01:50:24;;;;;;;5.28;4.00;;;;;;;;;;6143429;23;20018;-76
2023/05/04 01:52:51;;;;;;;5.35;3.85;;;;;;;;;;6128768;23;20017;-76
2023/05/04 01:55:17;;;;;;;8.40;3.90;;;;;;;;;;6127153;23;20014;-74
2023/05/04 01:57:43;;;;;;;8.13;4.30;;;;;;;;;;6125171;23;20370;-75
2023/05/04 02:00:09;;;;;;;4.72;4.15;;;;;;;;;;6053117;23;20052;-76
2023/05/04 02:02:44;;;;;;;7.80;4.90;;;;;;;;;;6103013;23;20010;-76
2023/05/04 02:05:13;;;;;;;6.10;4.63;;;;;;;;;;6075218;23;20112;-76
2023/05/04 02:07:39;;;;;;;7.00;4.00;;;;;;;;;;6125078;23;20010;-75
2023/05/04 02:10:07;;;;;;;7.28;4.43;;;;;;;;;;6097753;23;20109;-76
2023/05/04 02:12:33;;;;;;;4.28;3.70;;;;;;;;;;6098778;23;20284;-75
2023/05/04 02:14:59;;;;;;;4.88;4.03;;;;;;;;;;6098380;23;20064;-76
2023/05/04 02:17:25;;;;;;;6.45;3.88;;;;;;;;;;6125576;23;20014;-76
2023/05/04 02:19:51;;;;;;;5.13;3.95;;;;;;;;;;6099594;23;20356;-78
2023/05/04 02:22:18;;;;;;;6.82;4.43;;;;;;;;;;6099064;23;20073;-76
2023/05/04 02:24:44;;;;;;;7.43;4.22;;;;;;;;;;6099214;23;20049;-78
2023/05/04 02:27:10;;;;;;;5.57;4.15;;;;;;;;;;6098625;23;20022;-76
2023/05/04 02:29:36;;;;;;;8.48;4.82;;;;;;;;;;6098712;23;20014;-77
2023/05/04 02:32:02;;;;;;;4.50;3.95;;;;;;;;;;6098917;23;20016;-77
2023/05/04 02:34:28;;;;;;;11.95;4.60;;;;;;;;;;6099269;23;20026;-77
2023/05/04 02:36:54;;;;;;;7.18;4.43;;;;;;;;;;6100878;23;20018;-77
2023/05/04 02:39:20;;;;;;;5.65;3.83;;;;;;;;;;6126963;23;20071;-79
2023/05/04 02:41:46;;;;;;;6.88;4.72;;;;;;;;;;6101735;23;20013;-77
2023/05/04 02:44:12;;;;;;;6.22;4.22;;;;;;;;;;6127723;23;20017;-76
2023/05/04 02:46:38;;;;;;;5.53;3.88;;;;;;;;;;6139648;23;20048;-76
2023/05/04 02:49:05;;;;;;;6.45;3.63;;;;;;;;;;6120298;23;20021;-77
2023/05/04 02:51:31;;;;;;;4.85;4.25;;;;;;;;;;6122873;23;20007;-77
2023/05/04 02:53:57;;;;;;;6.55;3.90;;;;;;;;;;6149539;23;20049;-76
2023/05/04 02:56:23;;;;;;;7.85;3.42;;;;;;;;;;6147645;23;20009;-76
2023/05/04 02:58:49;;;;;;;7.07;3.78;;;;;;;;;;6139789;23;20018;-77
2023/05/04 03:01:15;;;;;;;7.35;3.95;;;;;;;;;;6140242;23;20044;-77
2023/05/04 03:03:41;;;;;;;5.80;3.95;;;;;;;;;;6081290;23;20076;-76
2023/05/04 03:06:07;;;;;;;4.70;3.25;;;;;;;;;;6124136;23;20377;-77
2023/05/04 03:08:34;;;;;;;6.80;3.60;;;;;;;;;;6074353;23;20014;-75
2023/05/04 03:11:01;;;;;;;4.32;3.83;;;;;;;;;;6097746;23;20417;-76
2023/05/04 03:13:27;;;;;;;7.82;4.38;;;;;;;;;;6097758;23;20022;-77
2023/05/04 03:15:53;;;;;;;8.63;4.57;;;;;;;;;;6050149;23;20013;-79
2023/05/04 03:18:19;;;;;;;3.92;3.55;;;;;;;;;;6123814;23;20197;-79
2023/05/04 03:20:46;;;;;;;6.10;3.72;;;;;;;;;;6074243;23;20518;-79
2023/05/04 03:23:16;;;;;;;5.57;4.20;;;;;;;;;;6097541;23;20014;-78
2023/05/04 03:25:43;;;;;;;6.95;4.18;;;;;;;;;;6097064;23;20014;-79
2023/05/04 03:28:09;;;;;;;5.13;3.90;;;;;;;;;;6073645;23;20025;-78
2023/05/04 03:30:35;;;;;;;4.75;4.35;;;;;;;;;;6097510;23;20018;-78
2023/05/04 03:33:02;;;;;;;6.45;4.35;;;;;;;;;;6097660;23;20046;-77
2023/05/04 03:35:28;;;;;;;5.80;3.78;;;;;;;;;;6097408;23;20097;-77
2023/05/04 03:37:56;;;;;;;6.28;4.47;;;;;;;;;;6074122;23;20038;-78
2023/05/04 03:40:23;;;;;;;5.68;4.50;;;;;;;;;;6096631;23;20066;-76
2023/05/04 03:42:51;;;;;;;12.50;4.50;;;;;;;;;;6122394;23;20036;-76
2023/05/04 03:45:18;;;;;;;5.15;4.38;;;;;;;;;;6121720;23;20009;-76
2023/05/04 03:47:44;;;;;;;7.20;4.40;;;;;;;;;;6122600;23;20014;-77
2023/05/04 03:50:11;;;;;;;8.13;4.43;;;;;;;;;;6095943;23;20013;-78
2023/05/04 03:52:37;;;;;;;5.63;4.45;;;;;;;;;;6096920;23;20340;-78
2023/05/04 03:55:03;;;;;;;11.45;4.28;;;;;;;;;;6121586;23;20471;-79
2023/05/04 03:57:29;;;;;;;7.35;4.38;;;;;;;;;;6097716;23;20014;-76
2023/05/04 03:59:56;;;;;;;6.53;4.07;;;;;;;;;;6072272;23;20366;-78
2023/05/04 04:02:22;;;;;;;4.40;3.67;;;;;;;;;;6122426;23;20407;-77
2023/05/04 04:04:49;;;;;;;4.93;3.90;;;;;;;;;;6096748;23;20010;-78
2023/05/04 04:07:16;;;;;;;9.85;3.45;;;;;;;;;;6122754;23;20530;-77
2023/05/04 04:09:45;;;;;;;3.50;3.20;;;;;;;;;;6121852;23;20073;-77
2023/05/04 04:12:11;;;;;;;3.97;3.25;;;;;;;;;;6096671;23;20021;-78
2023/05/04 04:14:37;;;;;;;4.85;3.50;;;;;;;;;;6096361;23;20101;-78
2023/05/04 04:17:03;;;;;;;5.35;3.40;;;;;;;;;;6121466;23;20014;-77
2023/05/04 04:19:28;;;;;;;7.75;3.55;;;;;;;;;;6097451;23;20366;-79
2023/05/04 04:21:57;;;;;;;3.88;3.58;;;;;;;;;;6047714;23;20359;-78
2023/05/04 04:24:23;;;;;;;6.95;3.40;;;;;;;;;;6095089;23;20018;-77
2023/05/04 04:26:49;;;;;;;5.45;2.85;;;;;;;;;;6096189;23;20072;-79
2023/05/04 04:29:15;;;;;;;3.97;2.05;;;;;;;;;;6096054;23;20020;-79
2023/05/04 04:31:41;;;;;;;3.15;2.33;;;;;;;;;;6096657;23;20089;-80
2023/05/04 04:34:07;;;;;;;2.45;2.10;;;;;;;;;;6125344;23;20077;-81
2023/05/04 04:36:33;;;;;;;3.67;2.17;;;;;;;;;;6103541;23;20009;-78
2023/05/04 04:39:00;;;;;;;2.17;2.03;;;;;;;;;;6125499;23;20039;-79
2023/05/04 04:41:26;;;;;;;2.45;2.25;;;;;;;;;;6123378;23;20029;-79
2023/05/04 04:43:52;;;;;;;2.00;1.90;;;;;;;;;;6125799;23;20084;-80
2023/05/04 04:46:18;;;;;;;4.75;4.38;;;;;;;;;;6125105;23;20092;-78
2023/05/04 04:48:44;;;;;;;7.57;2.90;;;;;;;;;;6097621;23;20025;-79
2023/05/04 04:51:11;;;;;;;4.03;3.17;;;;;;;;;;6097175;23;20010;-79
2023/05/04 04:53:37;;;;;;;5.75;2.20;;;;;;;;;;6073773;23;20032;-80
2023/05/04 04:56:04;;;;;;;2.58;2.35;;;;;;;;;;6123401;23;20017;-80
2023/05/04 04:58:31;;;;;;;4.03;1.95;;;;;;;;;;6123637;23;20089;-79
2023/05/04 05:00:59;;;;;;;2.15;1.95;;;;;;;;;;6123133;23;20014;-79
2023/05/04 05:03:26;;;;;;;3.33;1.75;;;;;;;;;;6097646;23;20014;-79
2023/05/04 05:05:54;;;;;;;1.98;1.60;;;;;;;;;;6098585;23;20048;-79
2023/05/04 05:08:20;;;;;;;2.00;1.90;;;;;;;;;;6125164;23;20069;-79
2023/05/04 05:10:46;;;;;;;10.73;2.03;;;;;;;;;;6125186;23;20010;-80
2023/05/04 05:13:12;;;;;;;2.65;1.85;;;;;;;;;;6125060;23;20018;-78
2023/05/04 05:15:38;;;;;;;2.80;1.50;;;;;;;;;;6125795;23;20014;-80
2023/05/04 05:18:04;;;;;;;2.05;1.95;;;;;;;;;;6099550;23;20032;-80
2023/05/04 05:20:30;;;;;;;4.57;1.80;;;;;;;;;;6074462;23;20022;-79
2023/05/04 05:22:56;;;;;;;2.92;1.90;;;;;;;;;;6126272;23;20102;-79
2023/05/04 05:25:22;;;;;;;2.08;1.90;;;;;;;;;;6125791;23;20403;-80
2023/05/04 05:27:48;;;;;;;2.22;2.05;;;;;;;;;;6098301;23;20072;-81
2023/05/04 05:30:14;;;;;;;2.47;2.28;;;;;;;;;;6103223;23;20052;-81
2023/05/04 05:32:40;;;;;;;6.10;1.92;;;;;;;;;;6082995;23;20014;-80
2023/05/04 05:35:07;;;;;;;2.55;1.70;;;;;;;;;;6112158;23;20033;-78
2023/05/04 05:37:33;;;;;;;8.85;1.98;;;;;;;;;;6138805;23;20010;-77
2023/05/04 05:39:59;;;;;;;4.38;1.92;;;;;;;;;;6108827;23;20037;-81
2023/05/04 05:42:25;;;;;;;2.22;1.98;;;;;;;;;;6126165;23;20025;-79
2023/05/04 05:44:51;;;;;;;3.53;1.80;;;;;;;;;;6076513;23;20100;-79
2023/05/04 05:47:17;;;;;;;2.47;2.25;;;;;;;;;;6124255;23;20018;-78
2023/05/04 05:49:43;;;;;;;2.20;1.90;;;;;;;;;;6124135;23;20455;-77
2023/05/04 05:52:09;;;;;;;2.70;1.90;;;;;;;;;;6124016;23;20485;-79
2023/05/04 05:54:35;;;;;;;2.08;1.90;;;;;;;;;;6124519;23;20523;-80
2023/05/04 05:57:01;;;;;;;3.80;2.10;;;;;;;;;;6124156;23;20017;-80
2023/05/04 05:59:27;;;;;;;2.53;1.63;;;;;;;;;;6124661;23;20014;-79
2023/05/04 06:01:53;;;;;;;4.82;1.98;;;;;;;;;;6075092;23;20408;-80
2023/05/04 06:04:19;;;;;;;2.45;1.83;;;;;;;;;;6096970;23;20490;-78
2023/05/04 06:06:45;;;;;;;2.20;2.00;;;;;;;;;;6123970;23;20034;-81
2023/05/04 06:09:11;;;;;;;1.88;1.73;;;;;;;;;;6123327;23;20037;-80
2023/05/04 06:11:37;;;;;;;2.35;2.15;;;;;;;;;;6123688;23;20014;-81
2023/05/04 06:14:03;;;;;;;2.53;2.00;;;;;;;;;;6097364;23;20073;-80
2023/05/04 06:16:29;;;;;;;3.67;2.25;;;;;;;;;;6096884;23;20553;-80
2023/05/04 06:18:55;;;;;;;2.53;2.28;;;;;;;;;;6123624;23;20018;-80
2023/05/04 06:21:21;;;;;;;4.97;2.70;;;;;;;;;;6096261;23;20399;-81
2023/05/04 06:23:47;;;;;;;4.07;2.55;;;;;;;;;;6100031;23;20014;-79
2023/05/04 06:26:13;;;;;;;4.28;2.28;;;;;;;;;;6099255;23;20050;-80
2023/05/04 06:28:40;;;;;;;11.40;4.63;;;;;;;;;;6125413;23;20018;-80
2023/05/04 06:31:06;;;;;;;7.07;4.13;;;;;;;;;;6125439;23;20013;-81
2023/05/04 06:33:32;;;;;;;2.88;1.70;;;;;;;;;;6125485;23;20029;-80
2023/05/04 06:35:58;;;;;;;1.75;1.65;;;;;;;;;;6125677;23;20056;-79
2023/05/04 06:38:24;;;;;;;2.45;1.70;;;;;;;;;;6124995;23;20489;-81
2023/05/04 06:40:50;;;;;;;2.75;1.67;;;;;;;;;;6099160;23;20038;-80
2023/05/04 06:43:17;;;;;;;1.90;1.80;;;;;;;;;;6098659;23;20362;-81
2023/05/04 06:45:43;;;;;;;1.52;1.50;;;;;;;;;;6099671;23;20014;-78
2023/05/04 06:48:10;;;;;;;2.92;1.63;;;;;;;;;;6075329;23;20104;-82
2023/05/04 06:50:37;;;;;;;2.03;1.80;;;;;;;;;;6100435;23;20349;-81
2023/05/04 06:53:05;;;;;;;2.55;1.83;;;;;;;;;;6100478;23;20014;-80
2023/05/04 06:55:32;;;;;;;3.08;1.90;;;;;;;;;;6099299;23;20014;-80
2023/05/04 06:57:58;;;;;;;3.90;1.95;;;;;;;;;;6125261;23;20088;-80
2023/05/04 07:00:24;;;;;;;3.10;2.10;;;;;;;;;;6124906;23;20014;-80
2023/05/04 07:02:53;;;;;;;3.53;1.80;;;;;;;;;;6124848;23;20018;-80
2023/05/04 07:05:20;;;;;;;5.28;2.55;;;;;;;;;;6125212;23;20013;-80
2023/05/04 07:07:46;;;;;;;3.05;1.80;;;;;;;;;;6125934;23;20021;-80
2023/05/04 07:10:13;;;;;;;4.85;2.00;;;;;;;;;;6099440;23;20056;-80
2023/05/04 07:12:40;;;;;;;2.15;1.90;;;;;;;;;;6075877;23;20009;-80
2023/05/04 07:15:07;;;;;;;4.10;2.35;;;;;;;;;;6099344;23;20050;-81
2023/05/04 07:17:33;;;;;;;3.72;2.05;;;;;;;;;;6125950;23;20459;-81
2023/05/04 07:20:00;;;;;;;2.53;1.75;;;;;;;;;;6099890;23;20065;-79
2023/05/04 07:22:26;;;;;;;7.68;2.30;;;;;;;;;;6098836;23;20080;-79
2023/05/04 07:24:52;;;;;;;2.85;2.17;;;;;;;;;;6052221;23;20018;-81
2023/05/04 07:27:18;;;;;;;5.38;2.30;;;;;;;;;;6124575;23;20045;-80
2023/05/04 07:29:44;;;;;;;3.45;2.30;;;;;;;;;;6098985;23;20530;-81
2023/05/04 07:32:09;;;;;;;2.05;1.85;;;;;;;;;;6125562;23;20340;-79
2023/05/04 07:34:36;;;;;;;2.20;2.10;;;;;;;;;;6125781;23;20028;-81
2023/05/04 07:37:05;;;;;;;2.30;2.10;;;;;;;;;;6125017;23;20147;-80
2023/05/04 07:39:33;;;;;;;1.92;1.83;;;;;;;;;;6129604;23;20041;-81
2023/05/04 07:42:01;;;;;;;2.10;1.85;;;;;;;;;;6107417;23;20013;-80
2023/05/04 07:44:27;;;;;;;2.38;2.17;;;;;;;;;;6109302;23;20024;-80
2023/05/04 07:46:53;;;;;;;2.35;2.15;;;;;;;;;;6136349;23;20024;-80
2023/05/04 07:49:19;;;;;;;4.95;2.10;;;;;;;;;;6111343;23;20010;-81
2023/05/04 07:51:45;;;;;;;2.63;1.85;;;;;;;;;;6109482;23;20013;-80
2023/05/04 07:54:11;;;;;;;3.97;1.92;;;;;;;;;;6134379;23;20105;-80
2023/05/04 07:56:37;;;;;;;2.38;2.17;;;;;;;;;;6135348;23;20006;-79
2023/05/04 07:59:04;;;;;;;3.05;2.38;;;;;;;;;;6130401;23;20040;-79
2023/05/04 08:01:30;;;;;;;2.08;1.92;;;;;;;;;;6137662;23;20017;-79
2023/05/04 08:03:56;;;;;;;2.75;2.55;;;;;;;;;;6139863;23;20025;-79
2023/05/04 08:06:22;;;;;;;2.15;1.98;;;;;;;;;;6105713;23;20494;-80
2023/05/04 08:08:48;;;;;;;4.93;2.00;;;;;;;;;;6124974;23;20017;-81
2023/05/04 08:11:14;;;;;;;2.10;2.00;;;;;;;;;;6099074;23;20013;-79
2023/05/04 08:13:40;;;;;;;3.25;2.63;;;;;;;;;;6124958;23;20036;-79
2023/05/04 08:16:08;;;;;;;4.70;2.20;;;;;;;;;;6125075;23;20093;-80
2023/05/04 08:18:34;;;;;;;3.30;2.50;;;;;;;;;;6124138;23;20018;-80
2023/05/04 08:21:00;;;;;;;3.53;2.30;;;;;;;;;;6098252;23;20024;-80
2023/05/04 08:23:26;;;;;;;2.47;2.13;;;;;;;;;;6050444;23;20013;-80
2023/05/04 08:25:52;;;;;;;4.30;2.28;;;;;;;;;;6126666;23;20021;-80
2023/05/04 08:28:18;;;;;;;3.67;2.65;;;;;;;;;;6128945;23;20014;-79
2023/05/04 08:30:44;;;;;;;2.83;2.35;;;;;;;;;;6100912;23;20339;-80
2023/05/04 08:33:10;;;;;;;2.40;2.20;;;;;;;;;;6100269;23;20049;-81
2023/05/04 08:35:36;;;;;;;5.60;2.50;;;;;;;;;;6099256;23;20036;-79
2023/05/04 08:38:02;;;;;;;4.38;2.40;;;;;;;;;;6099712;23;20077;-79
2023/05/04 08:40:29;;;;;;;3.67;2.38;;;;;;;;;;6126771;23;20412;-80
2023/05/04 08:42:55;;;;;;;2.85;2.30;;;;;;;;;;6102876;23;20031;-80
2023/05/04 08:45:21;;;;;;;2.50;2.30;;;;;;;;;;6104615;23;20029;-80
2023/05/04 08:47:47;;;;;;;6.13;2.20;;;;;;;;;;6132404;23;20016;-79
2023/05/04 08:50:13;;;;;;;2.67;2.40;;;;;;;;;;6135338;23;20041;-79
2023/05/04 08:52:43;;;;;;;2.63;2.33;;;;;;;;;;6119375;23;20017;-79
2023/05/04 08:55:09;;;;;;;2.50;2.40;;;;;;;;;;6144017;23;20494;-79
2023/05/04 08:57:38;;;;;;;4.33;2.50;;;;;;;;;;6115806;23;20009;-80
2023/05/04 09:00:05;;;;;;;2.90;2.33;;;;;;;;;;6134282;23;20673;-81
2023/05/04 09:02:31;;;;;;;3.63;2.30;;;;;;;;;;6109219;23;20061;-81
2023/05/04 09:04:57;;;;;;;3.00;2.50;;;;;;;;;;6089618;23;20101;-80
2023/05/04 09:07:23;;;;;;;6.75;2.47;;;;;;;;;;6131639;23;20018;-79
2023/05/04 09:09:50;;;;;;;2.58;2.35;;;;;;;;;;6098672;23;20017;-79
2023/05/04 09:12:17;;;;;;;4.68;2.70;;;;;;;;;;6121116;23;20034;-79
2023/05/04 09:14:45;;;;;;;9.20;2.95;;;;;;;;;;6118602;23;20026;-78
2023/05/04 09:17:11;;;;;;;5.15;2.58;;;;;;;;;;6119105;23;20010;-79
2023/05/04 09:19:42;;;;;;;6.20;2.72;;;;;;;;;;6112398;23;20017;-79
2023/05/04 09:22:14;;;;;;;2.85;2.65;;;;;;;;;;6111765;23;20041;-80
2023/05/04 09:24:40;;;;;;;3.28;2.83;;;;;;;;;;6081367;23;20020;-79
2023/05/04 09:27:10;;;;;;;6.88;2.65;;;;;;;;;;6103160;23;20078;-80
2023/05/04 09:29:39;;;;;;;2.85;2.67;;;;;;;;;;6128157;23;20021;-78
2023/05/04 09:32:06;;;;;;;5.95;2.80;;;;;;;;;;6128009;23;20089;-79
2023/05/04 09:34:33;;;;;;;8.13;3.17;;;;;;;;;;6126787;23;20048;-79
2023/05/04 09:37:00;;;;;;;3.35;2.95;;;;;;;;;;6126882;23;20014;-79
2023/05/04 09:39:26;;;;;;;3.17;2.75;;;;;;;;;;6102451;23;20073;-80
2023/05/04 09:41:53;;;;;;;2.88;2.60;;;;;;;;;;6102710;23;20013;-78
2023/05/04 09:44:20;;;;;;;2.80;2.40;;;;;;;;;;6121143;23;20034;-76
2023/05/04 09:46:56;;;;;;;2.90;2.70;;;;;;;;;;6124891;23;20061;-77
2023/05/04 09:49:31;;;;;;;2.60;2.50;;;;;;;;;;6126333;23;20014;-78
2023/05/04 09:51:58;;;;;;;5.60;2.50;;;;;;;;;;6100474;23;20061;-76
2023/05/04 09:54:34;;;;;;;4.38;2.47;;;;;;;;;;6050579;23;20035;-76
2023/05/04 09:57:05;;;;;;;2.80;2.60;;;;;;;;;;6074739;23;20014;-76
2023/05/04 09:59:32;;;;;;;5.43;2.80;;;;;;;;;;6097630;23;20371;-76
2023/05/04 10:01:58;;;;;;;6.03;3.70;;;;;;;;;;6074394;23;20013;-76
2023/05/04 10:04:24;;;;;;;2.42;2.30;;;;;;;;;;6096213;23;20096;-77
2023/05/04 10:06:51;;;;;;;2.30;2.20;;;;;;;;;;6099020;23;20068;-78
2023/05/04 10:09:17;;;;;;;4.32;2.53;;;;;;;;;;6124305;23;20017;-78
2023/05/04 10:11:43;;;;;;;2.67;2.47;;;;;;;;;;6098076;23;20214;-77
2023/05/04 10:14:09;;;;;;;2.38;2.20;;;;;;;;;;6097476;23;20026;-78
2023/05/04 10:16:37;;;;;;;4.25;2.80;;;;;;;;;;6076545;23;20010;-77
2023/05/04 10:19:22;;;;;;;2.60;2.40;;;;;;;;;;6118241;23;20014;-77
2023/05/04 10:22:06;;;;;;;9.02;3.72;;;;;;;;;;6145499;23;20014;-77
2023/05/04 10:24:35;;;;;;;2.50;2.40;;;;;;;;;;6145765;23;20014;-76
2023/05/04 10:27:08;;;;;;;6.30;2.42;;;;;;;;;;6146116;23;20073;-75
2023/05/04 10:29:34;;;;;;;2.75;2.55;;;;;;;;;;6087977;23;20438;-79
2023/05/04 10:32:00;;;;;;;2.78;2.53;;;;;;;;;;6101162;23;20462;-78
2023/05/04 10:34:27;;;;;;;5.13;2.55;;;;;;;;;;6097475;23;20036;-78
2023/05/04 10:36:53;;;;;;;4.20;3.05;;;;;;;;;;6123743;23;20014;-78
2023/05/04 10:39:20;;;;;;;2.17;2.08;;;;;;;;;;6099492;23;20038;-80
2023/05/04 10:42:02;;;;;;;5.93;1.88;;;;;;;;;;6077048;23;20096;-80
2023/05/04 10:44:32;;;;;;;3.38;2.40;;;;;;;;;;6075371;23;20053;-77
2023/05/04 10:46:59;;;;;;;3.80;2.40;;;;;;;;;;6095508;23;20446;-78
2023/05/04 10:49:25;;;;;;;4.63;2.38;;;;;;;;;;6120556;23;20049;-79
2023/05/04 10:52:03;;;;;;;2.80;2.60;;;;;;;;;;6121850;23;20014;-79
2023/05/04 10:54:29;;;;;;;5.15;2.78;;;;;;;;;;6121669;23;20021;-80
2023/05/04 10:57:02;;;;;;;11.15;7.72;;;;;;;;;;6072483;23;20024;-79
2023/05/04 10:59:29;;;;;;;2.75;2.53;;;;;;;;;;6096539;23;20517;-79
2023/05/04 11:01:55;;;;;;;4.78;2.42;;;;;;;;;;6096457;23;20024;-79
2023/05/04 11:04:22;;;;;;;3.97;2.55;;;;;;;;;;6072512;23;20407;-78
2023/05/04 11:06:54;;;;;;;4.63;2.47;;;;;;;;;;6124069;23;20009;-79
2023/05/04 11:09:21;;;;;;;7.75;2.53;;;;;;;;;;6123792;23;20092;-78
2023/05/04 11:11:47;;;;;;;2.80;2.15;;;;;;;;;;6097580;23;20399;-78
2023/05/04 11:14:21;;;;;;;2.22;2.13;;;;;;;;;;6098636;23;20359;-79
2023/05/04 11:16:47;;;;;;;2.33;2.22;;;;;;;;;;6074206;23;20040;-78
2023/05/04 11:19:13;;;;;;;3.05;2.38;;;;;;;;;;6098806;23;20009;-79
2023/05/04 11:21:39;;;;;;;4.50;2.30;;;;;;;;;;6129120;23;20559;-79
2023/05/04 11:24:05;;;;;;;2.63;2.08;;;;;;;;;;6112547;23;20263;-78
2023/05/04 11:26:32;;;;;;;2.85;2.28;;;;;;;;;;6089508;23;20378;-79
2023/05/04 11:28:58;;;;;;;3.28;2.50;;;;;;;;;;6138765;23;20092;-79
2023/05/04 11:31:24;;;;;;;2.17;2.08;;;;;;;;;;6100444;23;20101;-80
2023/05/04 11:33:51;;;;;;;2.58;2.38;;;;;;;;;;6098903;23;20022;-80
2023/05/04 11:36:17;;;;;;;2.15;2.05;;;;;;;;;;6123601;23;20014;-79
2023/05/04 11:38:43;;;;;;;2.13;1.98;;;;;;;;;;6123765;23;20021;-79
2023/05/04 11:41:10;;;;;;;4.00;2.55;;;;;;;;;;6097797;23;20013;-78
2023/05/04 11:43:37;;;;;;;2.38;2.13;;;;;;;;;;6073233;23;20403;-79
2023/05/04 11:46:04;;;;;;;2.45;2.13;;;;;;;;;;6123836;23;20446;-79
2023/05/04 11:48:31;;;;;;;2.50;2.30;;;;;;;;;;6123659;23;20014;-78
2023/05/04 11:50:57;;;;;;;2.50;2.15;;;;;;;;;;6123494;23;20013;-79
2023/05/04 11:53:23;;;;;;;1.92;1.83;;;;;;;;;;6097617;23;20017;-79
2023/05/04 11:55:52;;;;;;;2.38;2.25;;;;;;;;;;6123399;23;20014;-79
2023/05/04 11:58:26;;;;;;;2.65;2.30;;;;;;;;;;6097941;23;20018;-79
2023/05/04 12:00:56;;;;;;;3.17;2.40;;;;;;;;;;6074086;23;20362;-78
2023/05/04 12:03:25;;;;;;;2.45;2.10;;;;;;;;;;6098132;23;20065;-79
2023/05/04 12:05:53;;;;;;;2.47;2.25;;;;;;;;;;6097732;23;20018;-79
2023/05/04 12:08:24;;;;;;;1.83;1.70;;;;;;;;;;6097932;23;20014;-78
2023/05/04 12:11:07;;;;;;;3.47;2.20;;;;;;;;;;6126252;23;20119;-78
2023/05/04 12:13:34;;;;;;;2.83;2.25;;;;;;;;;;6123145;23;20026;-77
2023/05/04 12:16:13;;;;;;;3.38;2.33;;;;;;;;;;6123000;23;20006;-78
2023/05/04 12:18:39;;;;;;;2.47;2.10;;;;;;;;;;6073702;23;20045;-78
2023/05/04 12:21:09;;;;;;;2.63;1.80;;;;;;;;;;6123243;23;20021;-79
2023/05/04 12:23:35;;;;;;;3.90;2.00;;;;;;;;;;6097444;23;20022;-78
2023/05/04 12:26:01;;;;;;;8.70;1.90;;;;;;;;;;6096834;23;20394;-77
2023/05/04 12:28:30;;;;;;;1.98;1.85;;;;;;;;;;6123315;23;20021;-78
2023/05/04 12:30:58;;;;;;;2.17;1.98;;;;;;;;;;6125430;23;20013;-78
2023/05/04 12:33:25;;;;;;;3.10;2.00;;;;;;;;;;6132065;23;20014;-80
2023/05/04 12:35:51;;;;;;;1.80;1.70;;;;;;;;;;6130857;23;20018;-78
2023/05/04 12:38:17;;;;;;;3.95;1.77;;;;;;;;;;6130856;23;20016;-79
2023/05/04 12:40:43;;;;;;;1.92;1.83;;;;;;;;;;6104149;23;20073;-79
2023/05/04 12:43:09;;;;;;;1.70;1.55;;;;;;;;;;6104118;23;20010;-79
2023/05/04 12:45:35;;;;;;;4.10;1.85;;;;;;;;;;6131379;23;20024;-78
2023/05/04 12:48:02;;;;;;;10.07;1.83;;;;;;;;;;6103587;23;20467;-78
2023/05/04 12:50:28;;;;;;;1.67;1.40;;;;;;;;;;6129470;23;20016;-78
2023/05/04 12:52:54;;;;;;;4.18;1.80;;;;;;;;;;6130527;23;20418;-79
2023/05/04 12:55:20;;;;;;;1.90;1.70;;;;;;;;;;6126900;23;20048;-79
2023/05/04 12:57:46;;;;;;;3.58;1.60;;;;;;;;;;6103538;23;20013;-79
2023/05/04 13:00:15;;;;;;;1.55;1.45;;;;;;;;;;6130288;23;20462;-79
2023/05/04 13:02:43;;;;;;;2.40;1.75;;;;;;;;;;6082283;23;20016;-79
2023/05/04 13:05:09;;;;;;;1.95;1.83;;;;;;;;;;6104441;23;20305;-79
2023/05/04 13:07:35;;;;;;;1.90;1.80;;;;;;;;;;6130496;23;20026;-79
2023/05/04 13:10:01;;;;;;;1.23;1.23;;;;;;;;;;6103892;23;20340;-78
2023/05/04 13:12:28;;;;;;;1.83;1.40;;;;;;;;;;6129526;23;20037;-78
2023/05/04 13:14:56;;;;;;;2.30;1.70;;;;;;;;;;6127134;23;20030;-78
2023/05/04 13:17:22;;;;;;;1.70;1.60;;;;;;;;;;6102210;23;20065;-78
2023/05/04 13:19:48;;;;;;;3.50;1.60;;;;;;;;;;6076441;23;20022;-77
2023/05/04 13:22:14;;;;;;;1.23;1.23;;;;;;;;;;6075530;23;20021;-79
2023/05/04 13:24:40;;;;;;;1.85;1.75;;;;;;;;;;6101989;23;20085;-78
2023/05/04 13:27:06;;;;;;;2.05;1.60;;;;;;;;;;6127321;23;20026;-78
2023/05/04 13:29:33;;;;;;;2.05;1.63;;;;;;;;;;6103137;23;20020;-78
2023/05/04 13:31:59;;;;;;;1.70;1.60;;;;;;;;;;6130207;23;20014;-78
2023/05/04 13:34:25;;;;;;;2.90;1.80;;;;;;;;;;6130266;23;20391;-78
2023/05/04 13:36:51;;;;;;;1.80;1.70;;;;;;;;;;6128607;23;20017;-79
2023/05/04 13:39:20;;;;;;;1.83;1.73;;;;;;;;;;6078838;23;20514;-78
2023/05/04 13:41:46;;;;;;;1.90;1.80;;;;;;;;;;6103397;23;20028;-78
2023/05/04 13:44:12;;;;;;;2.97;1.88;;;;;;;;;;6103972;23;20109;-80
2023/05/04 13:46:38;;;;;;;1.58;1.50;;;;;;;;;;6128395;23;20403;-78
2023/05/04 13:49:05;;;;;;;1.52;1.40;;;;;;;;;;6076881;23;20018;-78
2023/05/04 13:51:31;;;;;;;2.03;1.92;;;;;;;;;;6126629;23;20021;-79
2023/05/04 13:54:01;;;;;;;1.80;1.70;;;;;;;;;;6101944;23;20034;-78
2023/05/04 13:56:27;;;;;;;4.10;1.60;;;;;;;;;;6127244;23;20014;-78
2023/05/04 13:58:56;;;;;;;4.40;1.88;;;;;;;;;;6101835;23;20025;-78
2023/05/04 14:01:22;;;;;;;1.70;1.60;;;;;;;;;;6127187;23;20020;-78
2023/05/04 14:03:48;;;;;;;2.88;1.88;;;;;;;;;;6101566;23;20014;-78
2023/05/04 14:06:14;;;;;;;2.03;1.67;;;;;;;;;;6126708;23;20020;-79
2023/05/04 14:08:41;;;;;;;2.50;1.83;;;;;;;;;;6100287;23;20029;-77
2023/05/04 14:11:06;;;;;;;4.68;2.03;;;;;;;;;;6101418;23;20018;-78
2023/05/04 14:13:33;;;;;;;3.70;2.20;;;;;;;;;;6129032;23;20462;-79
2023/05/04 14:15:59;;;;;;;1.88;1.73;;;;;;;;;;6102827;23;20020;-78
2023/05/04 14:18:26;;;;;;;4.28;2.00;;;;;;;;;;6100930;23;20085;-79
2023/05/04 14:20:52;;;;;;;2.63;2.17;;;;;;;;;;6100442;23;20018;-78
2023/05/04 14:23:19;;;;;;;1.70;1.60;;;;;;;;;;6127039;23;20014;-78
2023/05/04 14:25:50;;;;;;;2.50;1.98;;;;;;;;;;6125786;23;20026;-78
2023/05/04 14:28:17;;;;;;;1.65;1.55;;;;;;;;;;6126853;23;20033;-78
2023/05/04 14:30:43;;;;;;;1.77;1.60;;;;;;;;;;6101238;23;20021;-78
2023/05/04 14:33:09;;;;;;;1.92;1.65;;;;;;;;;;6108996;23;20062;-78
2023/05/04 14:35:42;;;;;;;2.72;2.00;;;;;;;;;;6112453;23;20025;-79
2023/05/04 14:38:11;;;;;;;1.90;1.80;;;;;;;;;;6141874;23;20081;-78
2023/05/04 14:40:37;;;;;;;1.80;1.70;;;;;;;;;;6085915;23;20013;-78